Aviation Digital Data Service (ADDS)

Output produced by METARs form (2214 UTC 01 August 2015)
found at http://aviationweather.gov/adds/metars/
 
KCAR 011738Z 0118/0218 20009KT P6SM -SHRA SCT025 BKN070 
     TEMPO 0118/0121 27015G25KT 3SM -TSRA BKN025CB 
     FM020000 26005KT P6SM BKN250